sensor_id;sensor_type;location;lat;lon;timestamp;P1;durP1;ratioP1;P2;durP2;ratioP2
8098;SDS011;4092;47.876;9.372;2023-03-21T00:02:15;1.50;;;1.40;;
8098;SDS011;4092;47.876;9.372;2023-03-21T00:04:42;1.43;;;1.33;;
8098;SDS011;4092;47.876;9.372;2023-03-21T00:07:09;2.40;;;2.10;;
8098;SDS011;4092;47.876;9.372;2023-03-21T00:09:36;2.60;;;1.70;;
8098;SDS011;4092;47.876;9.372;2023-03-21T00:12:03;2.37;;;2.17;;
8098;SDS011;4092;47.876;9.372;2023-03-21T00:14:32;1.37;;;1.07;;
8098;SDS011;4092;47.876;9.372;2023-03-21T00:17:02;2.70;;;1.53;;
8098;SDS011;4092;47.876;9.372;2023-03-21T00:19:29;1.70;;;1.30;;
8098;SDS011;4092;47.876;9.372;2023-03-21T00:21:56;2.43;;;1.63;;
8098;SDS011;4092;47.876;9.372;2023-03-21T00:24:26;2.07;;;1.37;;
8098;SDS011;4092;47.876;9.372;2023-03-21T00:26:53;3.20;;;2.33;;
8098;SDS011;4092;47.876;9.372;2023-03-21T00:29:20;4.60;;;1.50;;
8098;SDS011;4092;47.876;9.372;2023-03-21T00:31:48;1.93;;;1.30;;
8098;SDS011;4092;47.876;9.372;2023-03-21T00:34:15;1.50;;;1.20;;
8098;SDS011;4092;47.876;9.372;2023-03-21T00:36:42;1.50;;;1.00;;
8098;SDS011;4092;47.876;9.372;2023-03-21T00:39:09;1.67;;;1.33;;
8098;SDS011;4092;47.876;9.372;2023-03-21T00:41:38;2.03;;;1.43;;
8098;SDS011;4092;47.876;9.372;2023-03-21T00:44:05;2.50;;;1.23;;
8098;SDS011;4092;47.876;9.372;2023-03-21T00:46:32;1.40;;;1.10;;
8098;SDS011;4092;47.876;9.372;2023-03-21T00:49:01;2.07;;;1.17;;
8098;SDS011;4092;47.876;9.372;2023-03-21T00:51:28;2.07;;;1.33;;
8098;SDS011;4092;47.876;9.372;2023-03-21T00:53:56;2.20;;;1.00;;
8098;SDS011;4092;47.876;9.372;2023-03-21T00:56:24;1.40;;;1.10;;
8098;SDS011;4092;47.876;9.372;2023-03-21T00:58:51;1.50;;;1.00;;
8098;SDS011;4092;47.876;9.372;2023-03-21T01:01:18;1.10;;;0.80;;
8098;SDS011;4092;47.876;9.372;2023-03-21T01:03:46;1.97;;;0.77;;
8098;SDS011;4092;47.876;9.372;2023-03-21T01:06:16;2.03;;;1.50;;
8098;SDS011;4092;47.876;9.372;2023-03-21T01:08:44;2.40;;;1.10;;
8098;SDS011;4092;47.876;9.372;2023-03-21T01:11:13;2.10;;;1.90;;
8098;SDS011;4092;47.876;9.372;2023-03-21T01:13:42;1.20;;;0.90;;
8098;SDS011;4092;47.876;9.372;2023-03-21T01:16:10;1.70;;;1.10;;
8098;SDS011;4092;47.876;9.372;2023-03-21T01:18:37;1.73;;;1.30;;
8098;SDS011;4092;47.876;9.372;2023-03-21T01:21:08;7.90;;;1.97;;
8098;SDS011;4092;47.876;9.372;2023-03-21T01:23:38;1.33;;;1.10;;
8098;SDS011;4092;47.876;9.372;2023-03-21T01:26:06;2.40;;;1.47;;
8098;SDS011;4092;47.876;9.372;2023-03-21T01:28:34;1.50;;;1.20;;
8098;SDS011;4092;47.876;9.372;2023-03-21T01:31:03;1.70;;;1.20;;
8098;SDS011;4092;47.876;9.372;2023-03-21T01:33:31;1.63;;;1.13;;
8098;SDS011;4092;47.876;9.372;2023-03-21T01:35:58;4.40;;;1.33;;
8098;SDS011;4092;47.876;9.372;2023-03-21T01:38:26;1.37;;;1.20;;
8098;SDS011;4092;47.876;9.372;2023-03-21T01:40:54;2.70;;;1.30;;
8098;SDS011;4092;47.876;9.372;2023-03-21T01:43:22;1.27;;;1.17;;
8098;SDS011;4092;47.876;9.372;2023-03-21T01:46:05;1.10;;;0.90;;
8098;SDS011;4092;47.876;9.372;2023-03-21T01:48:45;1.70;;;1.30;;
8098;SDS011;4092;47.876;9.372;2023-03-21T01:51:15;1.27;;;1.00;;
8098;SDS011;4092;47.876;9.372;2023-03-21T01:53:43;1.20;;;0.90;;
8098;SDS011;4092;47.876;9.372;2023-03-21T01:56:13;1.70;;;1.20;;
8098;SDS011;4092;47.876;9.372;2023-03-21T01:58:44;1.60;;;1.50;;
8098;SDS011;4092;47.876;9.372;2023-03-21T02:01:13;1.30;;;1.10;;
8098;SDS011;4092;47.876;9.372;2023-03-21T02:03:41;1.53;;;1.43;;
8098;SDS011;4092;47.876;9.372;2023-03-21T02:06:16;3.83;;;1.10;;
8098;SDS011;4092;47.876;9.372;2023-03-21T02:08:50;2.10;;;1.40;;
8098;SDS011;4092;47.876;9.372;2023-03-21T02:11:19;1.07;;;0.80;;
8098;SDS011;4092;47.876;9.372;2023-03-21T02:13:48;1.83;;;1.03;;
8098;SDS011;4092;47.876;9.372;2023-03-21T02:16:17;1.33;;;1.17;;
8098;SDS011;4092;47.876;9.372;2023-03-21T02:18:54;5.33;;;1.17;;
8098;SDS011;4092;47.876;9.372;2023-03-21T02:27:45;1.97;;;1.40;;
8098;SDS011;4092;47.876;9.372;2023-03-21T02:33:40;1.90;;;1.30;;
8098;SDS011;4092;47.876;9.372;2023-03-21T02:36:27;1.20;;;1.10;;
8098;SDS011;4092;47.876;9.372;2023-03-21T02:39:11;2.90;;;0.90;;
8098;SDS011;4092;47.876;9.372;2023-03-21T02:41:44;1.53;;;1.20;;
8098;SDS011;4092;47.876;9.372;2023-03-21T02:44:16;2.47;;;1.67;;
8098;SDS011;4092;47.876;9.372;2023-03-21T02:46:49;1.50;;;1.40;;
8098;SDS011;4092;47.876;9.372;2023-03-21T02:49:21;2.20;;;1.47;;
8098;SDS011;4092;47.876;9.372;2023-03-21T02:51:54;1.60;;;1.30;;
8098;SDS011;4092;47.876;9.372;2023-03-21T02:54:23;1.60;;;1.50;;
8098;SDS011;4092;47.876;9.372;2023-03-21T02:56:52;3.10;;;1.50;;
8098;SDS011;4092;47.876;9.372;2023-03-21T02:59:22;2.73;;;1.30;;
8098;SDS011;4092;47.876;9.372;2023-03-21T03:01:52;1.23;;;1.10;;
8098;SDS011;4092;47.876;9.372;2023-03-21T03:04:20;1.20;;;1.10;;
8098;SDS011;4092;47.876;9.372;2023-03-21T03:06:58;1.73;;;1.10;;
8098;SDS011;4092;47.876;9.372;2023-03-21T03:09:38;1.40;;;1.20;;
8098;SDS011;4092;47.876;9.372;2023-03-21T03:12:18;5.73;;;1.40;;
8098;SDS011;4092;47.876;9.372;2023-03-21T03:14:52;1.40;;;1.27;;
8098;SDS011;4092;47.876;9.372;2023-03-21T03:17:34;1.23;;;0.90;;
8098;SDS011;4092;47.876;9.372;2023-03-21T03:20:26;1.33;;;1.23;;
8098;SDS011;4092;47.876;9.372;2023-03-21T03:23:04;1.60;;;1.40;;
8098;SDS011;4092;47.876;9.372;2023-03-21T03:25:39;2.60;;;1.53;;
8098;SDS011;4092;47.876;9.372;2023-03-21T03:28:13;1.27;;;1.17;;
8098;SDS011;4092;47.876;9.372;2023-03-21T03:30:42;1.63;;;1.20;;
8098;SDS011;4092;47.876;9.372;2023-03-21T03:33:11;2.03;;;1.17;;
8098;SDS011;4092;47.876;9.372;2023-03-21T03:35:41;1.40;;;1.10;;
8098;SDS011;4092;47.876;9.372;2023-03-21T03:38:10;1.70;;;1.50;;
8098;SDS011;4092;47.876;9.372;2023-03-21T03:40:39;2.23;;;1.60;;
8098;SDS011;4092;47.876;9.372;2023-03-21T03:43:09;1.40;;;1.30;;
8098;SDS011;4092;47.876;9.372;2023-03-21T03:45:41;2.03;;;1.13;;
8098;SDS011;4092;47.876;9.372;2023-03-21T03:48:13;3.57;;;1.30;;
8098;SDS011;4092;47.876;9.372;2023-03-21T03:50:44;2.13;;;1.70;;
8098;SDS011;4092;47.876;9.372;2023-03-21T03:53:19;1.37;;;1.03;;
8098;SDS011;4092;47.876;9.372;2023-03-21T03:55:49;2.13;;;1.40;;
8098;SDS011;4092;47.876;9.372;2023-03-21T03:58:18;2.63;;;1.47;;
8098;SDS011;4092;47.876;9.372;2023-03-21T04:00:46;1.13;;;1.03;;
8098;SDS011;4092;47.876;9.372;2023-03-21T04:03:14;1.30;;;1.20;;
8098;SDS011;4092;47.876;9.372;2023-03-21T04:05:41;1.80;;;1.17;;
8098;SDS011;4092;47.876;9.372;2023-03-21T04:08:10;6.37;;;1.30;;
8098;SDS011;4092;47.876;9.372;2023-03-21T04:10:38;1.80;;;1.30;;
8098;SDS011;4092;47.876;9.372;2023-03-21T04:13:06;1.60;;;1.20;;
8098;SDS011;4092;47.876;9.372;2023-03-21T04:15:33;1.83;;;1.20;;
8098;SDS011;4092;47.876;9.372;2023-03-21T04:18:00;2.57;;;1.50;;
8098;SDS011;4092;47.876;9.372;2023-03-21T04:20:27;3.47;;;1.70;;
8098;SDS011;4092;47.876;9.372;2023-03-21T04:22:54;1.10;;;0.93;;
8098;SDS011;4092;47.876;9.372;2023-03-21T04:25:22;4.10;;;1.97;;
8098;SDS011;4092;47.876;9.372;2023-03-21T04:27:53;1.30;;;1.20;;
8098;SDS011;4092;47.876;9.372;2023-03-21T04:30:20;2.17;;;1.10;;
8098;SDS011;4092;47.876;9.372;2023-03-21T04:32:49;1.50;;;1.40;;
8098;SDS011;4092;47.876;9.372;2023-03-21T04:35:21;1.17;;;0.97;;
8098;SDS011;4092;47.876;9.372;2023-03-21T04:37:49;3.83;;;1.13;;
8098;SDS011;4092;47.876;9.372;2023-03-21T04:40:16;1.40;;;1.10;;
8098;SDS011;4092;47.876;9.372;2023-03-21T04:42:44;1.63;;;1.13;;
8098;SDS011;4092;47.876;9.372;2023-03-21T04:45:13;2.90;;;1.37;;
8098;SDS011;4092;47.876;9.372;2023-03-21T04:47:40;2.37;;;1.40;;
8098;SDS011;4092;47.876;9.372;2023-03-21T04:50:08;2.63;;;1.90;;
8098;SDS011;4092;47.876;9.372;2023-03-21T04:52:38;4.07;;;2.50;;
8098;SDS011;4092;47.876;9.372;2023-03-21T04:55:06;2.57;;;2.30;;
8098;SDS011;4092;47.876;9.372;2023-03-21T04:57:34;2.00;;;1.80;;
8098;SDS011;4092;47.876;9.372;2023-03-21T05:00:03;1.20;;;1.10;;
8098;SDS011;4092;47.876;9.372;2023-03-21T05:02:36;2.40;;;1.57;;
8098;SDS011;4092;47.876;9.372;2023-03-21T05:05:04;2.13;;;1.50;;
8098;SDS011;4092;47.876;9.372;2023-03-21T05:07:35;1.20;;;1.10;;
8098;SDS011;4092;47.876;9.372;2023-03-21T05:10:03;6.20;;;3.57;;
8098;SDS011;4092;47.876;9.372;2023-03-21T05:12:31;4.87;;;2.60;;
8098;SDS011;4092;47.876;9.372;2023-03-21T05:14:58;4.10;;;1.97;;
8098;SDS011;4092;47.876;9.372;2023-03-21T05:17:25;3.27;;;2.40;;
8098;SDS011;4092;47.876;9.372;2023-03-21T05:19:53;4.70;;;3.40;;
8098;SDS011;4092;47.876;9.372;2023-03-21T05:22:21;2.83;;;2.63;;
8098;SDS011;4092;47.876;9.372;2023-03-21T05:24:51;3.20;;;2.50;;
8098;SDS011;4092;47.876;9.372;2023-03-21T05:27:20;2.87;;;2.20;;
8098;SDS011;4092;47.876;9.372;2023-03-21T05:30:04;3.30;;;2.10;;
8098;SDS011;4092;47.876;9.372;2023-03-21T05:32:34;2.87;;;1.60;;
8098;SDS011;4092;47.876;9.372;2023-03-21T05:35:03;2.90;;;1.70;;
8098;SDS011;4092;47.876;9.372;2023-03-21T05:37:31;7.97;;;1.60;;
8098;SDS011;4092;47.876;9.372;2023-03-21T05:39:58;1.50;;;1.27;;
8098;SDS011;4092;47.876;9.372;2023-03-21T05:42:25;1.67;;;1.40;;
8098;SDS011;4092;47.876;9.372;2023-03-21T05:44:52;1.43;;;1.33;;
8098;SDS011;4092;47.876;9.372;2023-03-21T05:47:19;1.60;;;1.33;;
8098;SDS011;4092;47.876;9.372;2023-03-21T05:49:46;3.10;;;1.50;;
8098;SDS011;4092;47.876;9.372;2023-03-21T05:52:15;2.57;;;2.03;;
8098;SDS011;4092;47.876;9.372;2023-03-21T05:54:42;2.77;;;1.87;;
8098;SDS011;4092;47.876;9.372;2023-03-21T05:57:09;1.73;;;1.30;;
8098;SDS011;4092;47.876;9.372;2023-03-21T05:59:36;2.40;;;1.90;;
8098;SDS011;4092;47.876;9.372;2023-03-21T06:02:03;2.90;;;1.60;;
8098;SDS011;4092;47.876;9.372;2023-03-21T06:04:30;1.63;;;1.53;;
8098;SDS011;4092;47.876;9.372;2023-03-21T06:06:57;2.30;;;1.83;;
8098;SDS011;4092;47.876;9.372;2023-03-21T06:09:26;1.70;;;1.57;;
8098;SDS011;4092;47.876;9.372;2023-03-21T06:11:53;2.33;;;1.80;;
8098;SDS011;4092;47.876;9.372;2023-03-21T06:14:22;3.10;;;1.50;;
8098;SDS011;4092;47.876;9.372;2023-03-21T06:16:50;2.60;;;1.80;;
8098;SDS011;4092;47.876;9.372;2023-03-21T06:19:18;1.93;;;1.30;;
8098;SDS011;4092;47.876;9.372;2023-03-21T06:21:45;4.60;;;1.40;;
8098;SDS011;4092;47.876;9.372;2023-03-21T06:24:12;1.10;;;1.00;;
8098;SDS011;4092;47.876;9.372;2023-03-21T06:26:43;1.80;;;1.43;;
8098;SDS011;4092;47.876;9.372;2023-03-21T06:29:10;1.30;;;1.10;;
8098;SDS011;4092;47.876;9.372;2023-03-21T06:31:37;5.50;;;1.30;;
8098;SDS011;4092;47.876;9.372;2023-03-21T06:34:04;2.47;;;1.27;;
8098;SDS011;4092;47.876;9.372;2023-03-21T06:36:32;1.50;;;1.40;;
8098;SDS011;4092;47.876;9.372;2023-03-21T06:38:59;1.70;;;1.23;;
8098;SDS011;4092;47.876;9.372;2023-03-21T06:41:26;1.70;;;1.60;;
8098;SDS011;4092;47.876;9.372;2023-03-21T06:43:54;1.40;;;1.13;;
8098;SDS011;4092;47.876;9.372;2023-03-21T06:46:21;1.50;;;1.40;;
8098;SDS011;4092;47.876;9.372;2023-03-21T06:48:48;1.87;;;1.67;;
8098;SDS011;4092;47.876;9.372;2023-03-21T06:51:15;2.40;;;2.20;;
8098;SDS011;4092;47.876;9.372;2023-03-21T06:53:42;2.60;;;1.40;;
8098;SDS011;4092;47.876;9.372;2023-03-21T06:56:10;1.83;;;1.40;;
8098;SDS011;4092;47.876;9.372;2023-03-21T06:58:38;2.50;;;1.33;;
8098;SDS011;4092;47.876;9.372;2023-03-21T07:01:07;3.53;;;1.73;;
8098;SDS011;4092;47.876;9.372;2023-03-21T07:03:34;1.97;;;1.23;;
8098;SDS011;4092;47.876;9.372;2023-03-21T07:06:05;2.53;;;1.53;;
8098;SDS011;4092;47.876;9.372;2023-03-21T07:08:35;2.27;;;1.20;;
8098;SDS011;4092;47.876;9.372;2023-03-21T07:11:03;1.23;;;1.13;;
8098;SDS011;4092;47.876;9.372;2023-03-21T07:13:30;2.50;;;1.30;;
8098;SDS011;4092;47.876;9.372;2023-03-21T07:15:57;1.40;;;1.30;;
8098;SDS011;4092;47.876;9.372;2023-03-21T07:18:26;2.63;;;2.43;;
8098;SDS011;4092;47.876;9.372;2023-03-21T07:20:54;1.40;;;1.20;;
8098;SDS011;4092;47.876;9.372;2023-03-21T07:23:22;1.80;;;1.70;;
8098;SDS011;4092;47.876;9.372;2023-03-21T07:25:50;1.57;;;1.37;;
8098;SDS011;4092;47.876;9.372;2023-03-21T07:28:18;2.10;;;1.47;;
8098;SDS011;4092;47.876;9.372;2023-03-21T07:30:50;3.43;;;1.90;;
8098;SDS011;4092;47.876;9.372;2023-03-21T07:33:18;2.07;;;1.10;;
8098;SDS011;4092;47.876;9.372;2023-03-21T07:35:46;3.27;;;1.50;;
8098;SDS011;4092;47.876;9.372;2023-03-21T07:38:13;1.80;;;1.50;;
8098;SDS011;4092;47.876;9.372;2023-03-21T07:40:41;2.33;;;1.73;;
8098;SDS011;4092;47.876;9.372;2023-03-21T07:43:08;4.53;;;1.67;;
8098;SDS011;4092;47.876;9.372;2023-03-21T07:45:35;2.10;;;1.63;;
8098;SDS011;4092;47.876;9.372;2023-03-21T07:48:03;2.60;;;2.10;;
8098;SDS011;4092;47.876;9.372;2023-03-21T07:50:30;2.47;;;1.90;;
8098;SDS011;4092;47.876;9.372;2023-03-21T07:52:58;2.50;;;1.50;;
8098;SDS011;4092;47.876;9.372;2023-03-21T07:55:26;2.20;;;1.70;;
8098;SDS011;4092;47.876;9.372;2023-03-21T07:57:53;2.43;;;1.67;;
8098;SDS011;4092;47.876;9.372;2023-03-21T08:00:20;5.00;;;2.30;;
8098;SDS011;4092;47.876;9.372;2023-03-21T08:02:48;2.60;;;2.37;;
8098;SDS011;4092;47.876;9.372;2023-03-21T08:05:19;3.20;;;1.77;;
8098;SDS011;4092;47.876;9.372;2023-03-21T08:07:46;2.93;;;1.80;;
8098;SDS011;4092;47.876;9.372;2023-03-21T08:10:15;2.03;;;1.83;;
8098;SDS011;4092;47.876;9.372;2023-03-21T08:12:43;2.43;;;2.03;;
8098;SDS011;4092;47.876;9.372;2023-03-21T08:15:11;2.90;;;1.80;;
8098;SDS011;4092;47.876;9.372;2023-03-21T08:17:39;2.60;;;1.57;;
8098;SDS011;4092;47.876;9.372;2023-03-21T08:20:10;2.40;;;1.60;;
8098;SDS011;4092;47.876;9.372;2023-03-21T08:22:40;2.03;;;1.50;;
8098;SDS011;4092;47.876;9.372;2023-03-21T08:25:08;2.40;;;2.10;;
8098;SDS011;4092;47.876;9.372;2023-03-21T08:27:39;3.53;;;2.03;;
8098;SDS011;4092;47.876;9.372;2023-03-21T08:30:07;2.87;;;1.97;;
8098;SDS011;4092;47.876;9.372;2023-03-21T08:32:36;2.50;;;1.97;;
8098;SDS011;4092;47.876;9.372;2023-03-21T08:35:04;5.80;;;2.43;;
8098;SDS011;4092;47.876;9.372;2023-03-21T08:37:34;2.17;;;1.97;;
8098;SDS011;4092;47.876;9.372;2023-03-21T08:40:01;3.17;;;2.00;;
8098;SDS011;4092;47.876;9.372;2023-03-21T08:42:31;3.60;;;2.30;;
8098;SDS011;4092;47.876;9.372;2023-03-21T08:44:59;2.70;;;2.50;;
8098;SDS011;4092;47.876;9.372;2023-03-21T08:47:26;3.17;;;1.77;;
8098;SDS011;4092;47.876;9.372;2023-03-21T08:49:53;1.83;;;1.60;;
8098;SDS011;4092;47.876;9.372;2023-03-21T08:52:20;4.83;;;2.23;;
8098;SDS011;4092;47.876;9.372;2023-03-21T08:54:47;2.67;;;2.23;;
8098;SDS011;4092;47.876;9.372;2023-03-21T08:57:14;3.03;;;2.50;;
8098;SDS011;4092;47.876;9.372;2023-03-21T08:59:41;2.97;;;2.27;;
8098;SDS011;4092;47.876;9.372;2023-03-21T09:02:10;3.50;;;2.30;;
8098;SDS011;4092;47.876;9.372;2023-03-21T09:04:39;2.57;;;2.17;;
8098;SDS011;4092;47.876;9.372;2023-03-21T09:07:07;3.40;;;2.50;;
8098;SDS011;4092;47.876;9.372;2023-03-21T09:09:36;4.43;;;2.53;;
8098;SDS011;4092;47.876;9.372;2023-03-21T09:12:03;3.63;;;2.07;;
8098;SDS011;4092;47.876;9.372;2023-03-21T09:14:30;3.50;;;2.90;;
8098;SDS011;4092;47.876;9.372;2023-03-21T09:16:58;2.73;;;2.33;;
8098;SDS011;4092;47.876;9.372;2023-03-21T09:19:27;3.77;;;2.07;;
8098;SDS011;4092;47.876;9.372;2023-03-21T09:21:54;3.30;;;2.80;;
8098;SDS011;4092;47.876;9.372;2023-03-21T09:24:21;2.53;;;1.90;;
8098;SDS011;4092;47.876;9.372;2023-03-21T09:26:48;3.30;;;1.97;;
8098;SDS011;4092;47.876;9.372;2023-03-21T09:29:15;3.00;;;1.90;;
8098;SDS011;4092;47.876;9.372;2023-03-21T09:31:44;3.10;;;1.97;;
8098;SDS011;4092;47.876;9.372;2023-03-21T09:34:11;3.33;;;2.43;;
8098;SDS011;4092;47.876;9.372;2023-03-21T09:36:41;3.93;;;2.33;;
8098;SDS011;4092;47.876;9.372;2023-03-21T09:39:12;7.40;;;2.30;;
8098;SDS011;4092;47.876;9.372;2023-03-21T09:41:56;2.90;;;2.07;;
8098;SDS011;4092;47.876;9.372;2023-03-21T09:44:36;2.77;;;2.00;;
8098;SDS011;4092;47.876;9.372;2023-03-21T09:47:14;7.03;;;2.70;;
8098;SDS011;4092;47.876;9.372;2023-03-21T09:49:46;2.50;;;1.93;;
8098;SDS011;4092;47.876;9.372;2023-03-21T09:52:19;3.60;;;2.23;;
8098;SDS011;4092;47.876;9.372;2023-03-21T09:54:49;2.90;;;2.10;;
8098;SDS011;4092;47.876;9.372;2023-03-21T09:57:23;5.33;;;2.30;;
8098;SDS011;4092;47.876;9.372;2023-03-21T09:59:57;3.93;;;3.53;;
8098;SDS011;4092;47.876;9.372;2023-03-21T10:02:36;3.53;;;1.90;;
8098;SDS011;4092;47.876;9.372;2023-03-21T10:05:10;2.63;;;2.10;;
8098;SDS011;4092;47.876;9.372;2023-03-21T10:07:43;2.80;;;1.47;;
8098;SDS011;4092;47.876;9.372;2023-03-21T10:10:18;2.53;;;1.70;;
8098;SDS011;4092;47.876;9.372;2023-03-21T10:12:47;2.13;;;1.60;;
8098;SDS011;4092;47.876;9.372;2023-03-21T10:15:18;2.97;;;2.20;;
8098;SDS011;4092;47.876;9.372;2023-03-21T10:17:48;2.20;;;1.60;;
8098;SDS011;4092;47.876;9.372;2023-03-21T10:20:20;2.50;;;1.80;;
8098;SDS011;4092;47.876;9.372;2023-03-21T10:22:51;2.33;;;1.73;;
8098;SDS011;4092;47.876;9.372;2023-03-21T10:25:21;2.33;;;1.67;;
8098;SDS011;4092;47.876;9.372;2023-03-21T10:27:53;4.43;;;2.23;;
8098;SDS011;4092;47.876;9.372;2023-03-21T10:30:24;3.07;;;2.47;;
8098;SDS011;4092;47.876;9.372;2023-03-21T10:32:58;2.47;;;1.83;;
8098;SDS011;4092;47.876;9.372;2023-03-21T10:35:29;4.00;;;2.20;;
8098;SDS011;4092;47.876;9.372;2023-03-21T10:37:59;4.00;;;2.00;;
8098;SDS011;4092;47.876;9.372;2023-03-21T10:40:26;3.70;;;3.10;;
8098;SDS011;4092;47.876;9.372;2023-03-21T10:42:54;5.47;;;2.40;;
8098;SDS011;4092;47.876;9.372;2023-03-21T10:45:22;4.10;;;3.63;;
8098;SDS011;4092;47.876;9.372;2023-03-21T10:47:49;3.20;;;2.10;;
8098;SDS011;4092;47.876;9.372;2023-03-21T10:50:18;2.17;;;1.80;;
8098;SDS011;4092;47.876;9.372;2023-03-21T10:52:50;3.10;;;2.07;;
8098;SDS011;4092;47.876;9.372;2023-03-21T10:55:26;3.20;;;2.80;;
8098;SDS011;4092;47.876;9.372;2023-03-21T10:57:56;4.17;;;2.50;;
8098;SDS011;4092;47.876;9.372;2023-03-21T11:00:27;4.33;;;2.03;;
8098;SDS011;4092;47.876;9.372;2023-03-21T11:02:59;2.83;;;1.70;;
8098;SDS011;4092;47.876;9.372;2023-03-21T11:05:32;3.83;;;3.23;;
8098;SDS011;4092;47.876;9.372;2023-03-21T11:08:02;2.70;;;2.50;;
8098;SDS011;4092;47.876;9.372;2023-03-21T11:10:32;5.60;;;3.30;;
8098;SDS011;4092;47.876;9.372;2023-03-21T11:13:05;2.97;;;2.60;;
8098;SDS011;4092;47.876;9.372;2023-03-21T11:15:39;3.80;;;3.07;;
8098;SDS011;4092;47.876;9.372;2023-03-21T11:18:14;2.90;;;2.37;;
8098;SDS011;4092;47.876;9.372;2023-03-21T11:20:48;3.10;;;2.10;;
8098;SDS011;4092;47.876;9.372;2023-03-21T11:23:16;3.37;;;2.30;;
8098;SDS011;4092;47.876;9.372;2023-03-21T11:25:46;4.13;;;2.50;;
8098;SDS011;4092;47.876;9.372;2023-03-21T11:28:15;2.23;;;1.83;;
8098;SDS011;4092;47.876;9.372;2023-03-21T11:30:48;2.57;;;1.80;;
8098;SDS011;4092;47.876;9.372;2023-03-21T11:33:18;3.10;;;2.07;;
8098;SDS011;4092;47.876;9.372;2023-03-21T11:35:56;3.00;;;1.87;;
8098;SDS011;4092;47.876;9.372;2023-03-21T11:38:25;4.00;;;2.80;;
8098;SDS011;4092;47.876;9.372;2023-03-21T11:40:57;3.17;;;2.53;;
8098;SDS011;4092;47.876;9.372;2023-03-21T11:43:26;3.50;;;3.00;;
8098;SDS011;4092;47.876;9.372;2023-03-21T11:45:56;3.47;;;2.10;;
8098;SDS011;4092;47.876;9.372;2023-03-21T11:48:25;4.50;;;2.37;;
8098;SDS011;4092;47.876;9.372;2023-03-21T11:50:55;3.10;;;1.70;;
8098;SDS011;4092;47.876;9.372;2023-03-21T11:53:30;3.67;;;1.80;;
8098;SDS011;4092;47.876;9.372;2023-03-21T11:58:59;2.27;;;2.07;;
8098;SDS011;4092;47.876;9.372;2023-03-21T12:01:36;3.33;;;2.23;;
8098;SDS011;4092;47.876;9.372;2023-03-21T12:04:19;2.57;;;1.83;;
8098;SDS011;4092;47.876;9.372;2023-03-21T12:07:01;5.10;;;2.77;;
8098;SDS011;4092;47.876;9.372;2023-03-21T12:09:36;3.00;;;2.10;;
8098;SDS011;4092;47.876;9.372;2023-03-21T12:12:14;1.60;;;1.50;;
8098;SDS011;4092;47.876;9.372;2023-03-21T12:14:57;2.73;;;2.13;;
8098;SDS011;4092;47.876;9.372;2023-03-21T12:17:31;2.50;;;1.83;;
8098;SDS011;4092;47.876;9.372;2023-03-21T12:20:11;2.43;;;1.87;;
8098;SDS011;4092;47.876;9.372;2023-03-21T12:22:49;1.97;;;1.63;;
8098;SDS011;4092;47.876;9.372;2023-03-21T12:25:25;1.90;;;1.63;;
8098;SDS011;4092;47.876;9.372;2023-03-21T12:28:00;1.70;;;1.50;;
8098;SDS011;4092;47.876;9.372;2023-03-21T12:30:41;2.60;;;2.40;;
8098;SDS011;4092;47.876;9.372;2023-03-21T12:33:29;2.73;;;1.93;;
8098;SDS011;4092;47.876;9.372;2023-03-21T12:36:17;2.23;;;1.93;;
8098;SDS011;4092;47.876;9.372;2023-03-21T12:38:58;3.20;;;1.90;;
8098;SDS011;4092;47.876;9.372;2023-03-21T12:41:38;3.23;;;2.10;;
8098;SDS011;4092;47.876;9.372;2023-03-21T12:44:11;3.20;;;2.13;;
8098;SDS011;4092;47.876;9.372;2023-03-21T12:46:41;3.80;;;2.60;;
8098;SDS011;4092;47.876;9.372;2023-03-21T12:49:12;3.87;;;2.40;;
8098;SDS011;4092;47.876;9.372;2023-03-21T12:51:45;4.03;;;2.37;;
8098;SDS011;4092;47.876;9.372;2023-03-21T12:54:20;2.00;;;1.67;;
8098;SDS011;4092;47.876;9.372;2023-03-21T12:56:54;2.70;;;2.00;;
8098;SDS011;4092;47.876;9.372;2023-03-21T12:59:30;3.63;;;2.17;;
8098;SDS011;4092;47.876;9.372;2023-03-21T13:02:04;2.50;;;1.90;;
8098;SDS011;4092;47.876;9.372;2023-03-21T13:04:46;2.00;;;1.90;;
8098;SDS011;4092;47.876;9.372;2023-03-21T13:07:21;4.17;;;2.20;;
8098;SDS011;4092;47.876;9.372;2023-03-21T13:09:50;3.27;;;2.30;;
8098;SDS011;4092;47.876;9.372;2023-03-21T13:12:30;3.87;;;1.80;;
8098;SDS011;4092;47.876;9.372;2023-03-21T13:15:13;2.57;;;2.33;;
8098;SDS011;4092;47.876;9.372;2023-03-21T13:17:56;3.33;;;2.63;;
8098;SDS011;4092;47.876;9.372;2023-03-21T13:20:31;3.40;;;2.53;;
8098;SDS011;4092;47.876;9.372;2023-03-21T13:23:03;6.20;;;2.60;;
8098;SDS011;4092;47.876;9.372;2023-03-21T13:25:32;7.20;;;1.80;;
8098;SDS011;4092;47.876;9.372;2023-03-21T13:28:12;2.50;;;2.30;;
8098;SDS011;4092;47.876;9.372;2023-03-21T13:30:47;4.67;;;2.07;;
8098;SDS011;4092;47.876;9.372;2023-03-21T13:33:15;2.47;;;1.80;;
8098;SDS011;4092;47.876;9.372;2023-03-21T13:35:53;4.43;;;2.20;;
8098;SDS011;4092;47.876;9.372;2023-03-21T13:38:29;2.70;;;1.90;;
8098;SDS011;4092;47.876;9.372;2023-03-21T13:40:59;2.00;;;1.70;;
8098;SDS011;4092;47.876;9.372;2023-03-21T13:43:42;4.37;;;2.10;;
8098;SDS011;4092;47.876;9.372;2023-03-21T13:46:12;4.77;;;1.80;;
8098;SDS011;4092;47.876;9.372;2023-03-21T13:48:41;1.97;;;1.57;;
8098;SDS011;4092;47.876;9.372;2023-03-21T13:51:36;3.73;;;2.07;;
8098;SDS011;4092;47.876;9.372;2023-03-21T13:54:20;3.17;;;2.00;;
8098;SDS011;4092;47.876;9.372;2023-03-21T13:56:52;3.47;;;2.40;;
8098;SDS011;4092;47.876;9.372;2023-03-21T13:59:35;3.67;;;1.67;;
8098;SDS011;4092;47.876;9.372;2023-03-21T14:05:00;3.97;;;3.23;;
8098;SDS011;4092;47.876;9.372;2023-03-21T14:07:29;6.07;;;3.30;;
8098;SDS011;4092;47.876;9.372;2023-03-21T14:09:59;5.57;;;2.83;;
8098;SDS011;4092;47.876;9.372;2023-03-21T14:12:28;2.43;;;2.20;;
8098;SDS011;4092;47.876;9.372;2023-03-21T14:15:00;2.90;;;2.40;;
8098;SDS011;4092;47.876;9.372;2023-03-21T14:17:33;6.67;;;4.87;;
8098;SDS011;4092;47.876;9.372;2023-03-21T14:20:01;2.90;;;1.70;;
8098;SDS011;4092;47.876;9.372;2023-03-21T14:22:36;3.37;;;1.70;;
8098;SDS011;4092;47.876;9.372;2023-03-21T14:25:06;10.93;;;3.60;;
8098;SDS011;4092;47.876;9.372;2023-03-21T14:27:37;7.43;;;4.10;;
8098;SDS011;4092;47.876;9.372;2023-03-21T14:30:10;8.00;;;3.40;;
8098;SDS011;4092;47.876;9.372;2023-03-21T14:32:46;3.37;;;2.17;;
8098;SDS011;4092;47.876;9.372;2023-03-21T14:35:13;2.83;;;2.13;;
8098;SDS011;4092;47.876;9.372;2023-03-21T14:37:41;4.63;;;2.40;;
8098;SDS011;4092;47.876;9.372;2023-03-21T14:40:17;2.53;;;2.33;;
8098;SDS011;4092;47.876;9.372;2023-03-21T14:42:48;3.53;;;2.07;;
8098;SDS011;4092;47.876;9.372;2023-03-21T14:45:17;7.70;;;2.73;;
8098;SDS011;4092;47.876;9.372;2023-03-21T14:47:57;3.23;;;2.33;;
8098;SDS011;4092;47.876;9.372;2023-03-21T14:50:28;2.73;;;2.23;;
8098;SDS011;4092;47.876;9.372;2023-03-21T14:53:01;3.80;;;2.50;;
8098;SDS011;4092;47.876;9.372;2023-03-21T14:55:28;3.60;;;2.83;;
8098;SDS011;4092;47.876;9.372;2023-03-21T14:57:55;6.60;;;2.87;;
8098;SDS011;4092;47.876;9.372;2023-03-21T15:00:25;3.03;;;2.23;;
8098;SDS011;4092;47.876;9.372;2023-03-21T15:02:54;3.30;;;2.83;;
8098;SDS011;4092;47.876;9.372;2023-03-21T15:05:25;3.47;;;2.63;;
8098;SDS011;4092;47.876;9.372;2023-03-21T15:07:57;2.30;;;2.10;;
8098;SDS011;4092;47.876;9.372;2023-03-21T15:10:26;5.63;;;2.53;;
8098;SDS011;4092;47.876;9.372;2023-03-21T15:12:55;4.00;;;2.63;;
8098;SDS011;4092;47.876;9.372;2023-03-21T15:15:24;3.23;;;2.70;;
8098;SDS011;4092;47.876;9.372;2023-03-21T15:17:53;7.70;;;5.30;;
8098;SDS011;4092;47.876;9.372;2023-03-21T15:20:23;3.93;;;2.43;;
8098;SDS011;4092;47.876;9.372;2023-03-21T15:22:53;4.70;;;2.50;;
8098;SDS011;4092;47.876;9.372;2023-03-21T15:25:24;2.17;;;1.60;;
8098;SDS011;4092;47.876;9.372;2023-03-21T15:27:53;5.37;;;2.77;;
8098;SDS011;4092;47.876;9.372;2023-03-21T15:30:21;4.10;;;1.80;;
8098;SDS011;4092;47.876;9.372;2023-03-21T15:32:52;3.00;;;2.13;;
8098;SDS011;4092;47.876;9.372;2023-03-21T15:35:20;4.93;;;2.80;;
8098;SDS011;4092;47.876;9.372;2023-03-21T15:37:53;2.83;;;2.20;;
8098;SDS011;4092;47.876;9.372;2023-03-21T15:40:22;4.70;;;2.70;;
8098;SDS011;4092;47.876;9.372;2023-03-21T15:43:02;3.80;;;2.50;;
8098;SDS011;4092;47.876;9.372;2023-03-21T15:45:30;3.80;;;2.13;;
8098;SDS011;4092;47.876;9.372;2023-03-21T15:47:58;2.67;;;2.00;;
8098;SDS011;4092;47.876;9.372;2023-03-21T15:50:31;1.80;;;1.70;;
8098;SDS011;4092;47.876;9.372;2023-03-21T15:53:02;2.47;;;2.07;;